Time;durP1;ratioP1;P1;durP2;ratioP2;P2;SDS_P1;SDS_P2;PMS_P1;PMS_P2;Temp;Humidity;BMP_temperature;BMP_pressure;BME280_temperature;BME280_humidity;BME280_pressure;Samples;Min_cycle;Max_cycle;Signal;HPM_P1;HPM_P2
2022/11/05 00:17:19;;;;;;;3.38;2.10;;;;;;;;;;5112935;28;20034;-59
2022/11/05 00:20:33;;;;;;;5.97;2.70;;;;;;;;;;5112965;28;20032;-59
2022/11/05 00:26:10;;;;;;;2.15;1.45;;;;;;;;;;5010453;28;20037;-57
2022/11/05 00:29:07;;;;;;;3.72;2.20;;;;;;;;;;5078186;28;20036;-59
2022/11/05 00:34:30;;;;;;;5.30;2.25;;;;;;;;;;5112638;28;20051;-59
2022/11/05 00:37:01;;;;;;;2.97;1.58;;;;;;;;;;5110102;28;20032;-60
2022/11/05 00:39:27;;;;;;;;;;;;;;;;;;5112711;28;20484;-58
2022/11/05 00:45:07;;;;;;;2.78;1.60;;;;;;;;;;5112150;28;20038;-58
2022/11/05 00:51:10;;;;;;;2.28;1.48;;;;;;;;;;5086749;28;20048;-59
2022/11/05 00:53:43;;;;;;;2.80;1.35;;;;;;;;;;5091924;28;20040;-58
2022/11/05 00:56:46;;;;;;;2.83;1.48;;;;;;;;;;5091349;28;20032;-58
2022/11/05 00:59:40;;;;;;;3.72;1.45;;;;;;;;;;5038907;28;20047;-58
2022/11/05 01:02:37;;;;;;;3.67;1.58;;;;;;;;;;5091062;28;20478;-58
2022/11/05 01:05:19;;;;;;;2.45;1.55;;;;;;;;;;5091098;28;20386;-59
2022/11/05 01:07:51;;;;;;;2.30;1.20;;;;;;;;;;5091846;28;20036;-58
2022/11/05 01:13:13;;;;;;;4.43;1.45;;;;;;;;;;4989762;28;20085;-58
2022/11/05 01:16:07;;;;;;;2.40;1.10;;;;;;;;;;4989244;28;20081;-58
2022/11/05 01:18:53;;;;;;;;;;;;;;;;;;;;;
2022/11/05 01:21:24;;;;;;;2.90;1.13;;;;;;;;;;5086035;28;20072;-58
2022/11/05 01:24:12;;;;;;;3.35;1.77;;;;;;;;;;5090220;28;20101;-58
2022/11/05 01:30:10;;;;;;;2.53;1.48;;;;;;;;;;5090269;28;20070;-58
2022/11/05 01:35:49;;;;;;;4.70;2.50;;;;;;;;;;5080974;28;20095;-58
2022/11/05 01:38:43;;;;;;;;;;;;;;;;;;;;;
2022/11/05 01:50:26;;;;;;;3.95;1.58;;;;;;;;;;5072612;28;20067;-58
2022/11/05 01:52:59;;;;;;;2.55;1.27;;;;;;;;;;5071522;28;20109;-59
2022/11/05 01:55:40;;;;;;;1.35;0.77;;;;;;;;;;5090405;28;20036;-58
2022/11/05 01:58:15;;;;;;;3.35;1.13;;;;;;;;;;5028185;28;20093;-58
2022/11/05 02:00:55;;;;;;;2.75;0.82;;;;;;;;;;5028160;28;20053;-58
2022/11/05 02:03:41;;;;;;;;;;;;;;;;;;;;;
2022/11/05 02:06:20;;;;;;;1.55;0.93;;;;;;;;;;5027719;28;20056;-58
2022/11/05 02:09:47;;;;;;;2.47;1.58;;;;;;;;;;5013675;28;20064;-58
2022/11/05 02:12:03;;;;;;;1.65;1.00;;;;;;;;;;5022835;28;20065;-58
2022/11/05 02:14:43;;;;;;;3.25;0.88;;;;;;;;;;5011188;28;20072;-57
2022/11/05 02:17:28;;;;;;;1.58;0.93;;;;;;;;;;5010459;28;20038;-58
2022/11/05 02:20:16;;;;;;;1.30;0.63;;;;;;;;;;5027393;28;20029;-58
2022/11/05 02:23:03;;;;;;;1.65;0.80;;;;;;;;;;5004690;28;20029;-58
2022/11/05 02:35:04;;;;;;;2.35;1.13;;;;;;;;;;5028166;28;20045;-59
2022/11/05 02:37:51;;;;;;;1.23;0.77;;;;;;;;;;5027768;28;20049;-58
2022/11/05 02:40:47;;;;;;;1.45;0.85;;;;;;;;;;5028182;28;20268;-58
2022/11/05 02:46:39;;;;;;;2.65;1.05;;;;;;;;;;5075304;28;20031;-58
2022/11/05 02:49:28;;;;;;;1.80;0.80;;;;;;;;;;5089139;28;20047;-58
2022/11/05 02:55:20;;;;;;;1.65;0.93;;;;;;;;;;5088514;28;20096;-58
2022/11/05 03:01:05;;;;;;;1.98;0.90;;;;;;;;;;5088608;28;20501;-58
2022/11/05 03:03:57;;;;;;;2.13;1.15;;;;;;;;;;5088716;28;20036;-58
2022/11/05 03:06:32;;;;;;;2.50;1.17;;;;;;;;;;4987656;28;20038;-58
2022/11/05 03:09:17;;;;;;;2.15;1.10;;;;;;;;;;4967844;29;20039;-58
2022/11/05 03:12:14;;;;;;;2.30;1.02;;;;;;;;;;4968455;29;20126;-58
2022/11/05 03:15:00;;;;;;;1.88;0.73;;;;;;;;;;4968576;29;20027;-58
2022/11/05 03:20:57;;;;;;;4.18;0.88;;;;;;;;;;4958866;29;20120;-57
2022/11/05 03:23:38;;;;;;;1.27;0.70;;;;;;;;;;4968157;29;20041;-58
2022/11/05 03:26:28;;;;;;;2.47;1.10;;;;;;;;;;4968250;29;20042;-58
2022/11/05 03:29:15;;;;;;;1.95;0.85;;;;;;;;;;4968019;28;20066;-58
2022/11/05 03:32:02;;;;;;;2.72;1.38;;;;;;;;;;5041905;28;20036;-58
2022/11/05 03:34:48;;;;;;;1.80;0.77;;;;;;;;;;5066410;28;20171;-58
2022/11/05 03:37:31;;;;;;;2.17;1.17;;;;;;;;;;5066567;28;20063;-58
2022/11/05 03:40:10;;;;;;;2.53;1.13;;;;;;;;;;5077180;28;20044;-58
2022/11/05 03:46:24;;;;;;;1.52;0.80;;;;;;;;;;5088472;28;20120;-58
2022/11/05 03:52:05;;;;;;;2.15;1.35;;;;;;;;;;5046647;28;20037;-58
2022/11/05 03:54:41;;;;;;;2.15;1.25;;;;;;;;;;5090944;28;20032;-58
2022/11/05 03:57:33;;;;;;;3.20;1.00;;;;;;;;;;5108934;28;20050;-58
2022/11/05 04:00:37;;;;;;;2.22;1.42;;;;;;;;;;5092308;28;20043;-58
2022/11/05 04:18:42;;;;;;;3.22;1.17;;;;;;;;;;5109312;28;20035;-58
2022/11/05 04:30:50;;;;;;;;;;;;;;;;;;;;;
2022/11/05 04:36:03;;;;;;;2.78;0.95;;;;;;;;;;5086066;28;20477;-58
2022/11/05 04:39:52;;;;;;;2.05;1.20;;;;;;;;;;5094592;28;20134;-58
2022/11/05 04:42:10;;;;;;;2.25;1.17;;;;;;;;;;5079850;28;20516;-57
2022/11/05 04:45:00;;;;;;;7.32;1.52;;;;;;;;;;4992710;28;20487;-58
2022/11/05 04:47:57;;;;;;;;;;;;;;;;;;;;;
2022/11/05 04:50:29;;;;;;;3.03;1.20;;;;;;;;;;4992154;28;20421;-58
2022/11/05 04:56:10;;;;;;;2.88;1.88;;;;;;;;;;5043691;28;20404;-58
2022/11/05 04:59:12;;;;;;;2.15;0.98;;;;;;;;;;5097773;28;20469;-58
2022/11/05 05:01:56;;;;;;;3.83;1.35;;;;;;;;;;5074492;28;20546;-58
2022/11/05 05:04:37;;;;;;;2.35;1.23;;;;;;;;;;5079273;28;20032;-57
2022/11/05 05:07:06;;;;;;;;;;;;;;;;;;5081635;28;20028;-58
2022/11/05 05:13:06;;;;;;;1.48;0.80;;;;;;;;;;4985325;28;20121;-57
2022/11/05 05:15:39;;;;;;;1.30;0.75;;;;;;;;;;5077152;28;20469;-58
2022/11/05 05:18:25;;;;;;;1.33;0.60;;;;;;;;;;5098335;28;20028;-58
2022/11/05 05:27:10;;;;;;;4.25;1.63;;;;;;;;;;5052329;28;20032;-58
2022/11/05 05:29:58;;;;;;;2.42;1.52;;;;;;;;;;5097219;28;20024;-58
2022/11/05 05:32:54;;;;;;;1.80;1.20;;;;;;;;;;5064428;28;20488;-56
2022/11/05 05:35:50;;;;;;;2.38;1.60;;;;;;;;;;5098094;28;20060;-58
2022/11/05 05:38:40;;;;;;;3.70;1.85;;;;;;;;;;5078796;28;20354;-58
2022/11/05 05:41:27;;;;;;;3.22;2.25;;;;;;;;;;5097837;28;20413;-57
2022/11/05 05:44:15;;;;;;;2.88;1.92;;;;;;;;;;5097817;28;20165;-57
2022/11/05 05:47:07;;;;;;;3.13;2.10;;;;;;;;;;5083105;28;20035;-57
2022/11/05 05:49:50;;;;;;;;;;;;;;;;;;5076287;28;20035;-58
2022/11/05 05:52:44;;;;;;;3.40;2.38;;;;;;;;;;5077276;28;19905;-58
2022/11/05 05:58:58;;;;;;;4.05;3.10;;;;;;;;;;5076230;28;20060;-58
2022/11/05 06:01:30;;;;;;;5.40;3.50;;;;;;;;;;5052619;28;20039;-58
2022/11/05 06:04:19;;;;;;;;;;;;;;;;;;;;;
2022/11/05 06:07:00;;;;;;;4.60;3.38;;;;;;;;;;5035829;28;20039;-58
2022/11/05 06:09:47;;;;;;;5.50;4.03;;;;;;;;;;5076279;28;20029;-58
2022/11/05 06:12:24;;;;;;;6.03;4.07;;;;;;;;;;5075683;28;20036;-58
2022/11/05 06:15:05;;;;;;;4.90;4.03;;;;;;;;;;5076065;28;20047;-58
2022/11/05 06:18:01;;;;;;;5.68;4.03;;;;;;;;;;5013940;28;20392;-58
2022/11/05 06:20:27;;;;;;;5.50;3.90;;;;;;;;;;5013289;28;20084;-57
2022/11/05 06:26:10;;;;;;;7.30;5.47;;;;;;;;;;5013501;28;20038;-57
2022/11/05 06:28:45;;;;;;;7.00;6.03;;;;;;;;;;4998189;28;20578;-58
2022/11/05 06:31:25;;;;;;;6.78;5.85;;;;;;;;;;5013876;28;20037;-58
2022/11/05 06:34:13;;;;;;;8.52;6.60;;;;;;;;;;4996972;28;20504;-57
2022/11/05 06:36:55;;;;;;;7.45;4.75;;;;;;;;;;5014268;28;20403;-58
2022/11/05 06:39:48;;;;;;;;;;;;;;;;;;;;;
2022/11/05 06:49:06;;;;;;;11.43;9.52;;;;;;;;;;5030923;28;20048;-58
2022/11/05 06:51:42;;;;;;;13.05;9.13;;;;;;;;;;5076335;28;20048;-58
2022/11/05 06:54:27;;;;;;;13.10;9.85;;;;;;;;;;5095201;28;20042;-59
2022/11/05 06:57:10;;;;;;;14.60;10.18;;;;;;;;;;5088697;28;20036;-59
2022/11/05 07:00:00;;;;;;;14.85;9.93;;;;;;;;;;5074484;28;20451;-59
2022/11/05 07:02:55;;;;;;;12.93;10.65;;;;;;;;;;5069622;28;20117;-59
2022/11/05 07:05:47;;;;;;;12.80;10.10;;;;;;;;;;4993783;28;20524;-59
2022/11/05 07:11:25;;;;;;;;;;;;;;;;;;5090697;28;20032;-59
2022/11/05 07:13:57;;;;;;;16.15;10.80;;;;;;;;;;5095129;28;19904;-59
2022/11/05 07:16:48;;;;;;;13.95;10.38;;;;;;;;;;5076908;28;20485;-58
2022/11/05 07:19:29;;;;;;;13.27;9.93;;;;;;;;;;5095421;28;20054;-58
2022/11/05 07:22:22;;;;;;;17.58;11.68;;;;;;;;;;5095684;28;20365;-59
2022/11/05 07:25:11;;;;;;;14.50;10.65;;;;;;;;;;5084110;28;20036;-59
2022/11/05 07:27:42;;;;;;;15.02;12.13;;;;;;;;;;5058730;28;20040;-58
2022/11/05 07:33:04;;;;;;;16.08;12.07;;;;;;;;;;5077181;28;20039;-59
2022/11/05 07:35:56;;;;;;;;;;;;;;;;;;;;;
2022/11/05 07:45:18;;;;;;;15.02;10.65;;;;;;;;;;4992414;28;20038;-56
2022/11/05 07:47:55;;;;;;;13.52;11.10;;;;;;;;;;4992387;28;20061;-59
2022/11/05 07:56:23;;;;;;;20.33;12.25;;;;;;;;;;5037918;28;20035;-59
2022/11/05 07:59:07;;;;;;;17.00;13.05;;;;;;;;;;5061476;28;20028;-58
2022/11/05 08:02:16;;;;;;;15.32;11.52;;;;;;;;;;5073784;28;20361;-59
2022/11/05 08:04:51;;;;;;;14.43;11.85;;;;;;;;;;5046938;28;20525;-59
2022/11/05 08:07:21;;;;;;;15.65;11.98;;;;;;;;;;5073341;28;20462;-59
2022/11/05 08:10:23;;;;;;;17.55;12.05;;;;;;;;;;5073427;28;20086;-59
2022/11/05 08:13:05;;;;;;;16.45;12.55;;;;;;;;;;5021308;28;20035;-59
2022/11/05 08:18:34;;;;;;;16.23;12.35;;;;;;;;;;5065955;28;20111;-58
2022/11/05 08:21:26;;;;;;;15.80;10.98;;;;;;;;;;5066777;28;20055;-60
2022/11/05 08:23:59;;;;;;;12.48;10.35;;;;;;;;;;5067076;28;20079;-59
2022/11/05 08:26:55;;;;;;;13.82;10.55;;;;;;;;;;5071836;28;20486;-57
2022/11/05 08:33:20;;;;;;;14.25;9.30;;;;;;;;;;5015791;28;20073;-57
2022/11/05 08:36:18;;;;;;;11.55;8.52;;;;;;;;;;4998009;28;20413;-57
2022/11/05 08:38:50;;;;;;;8.27;5.95;;;;;;;;;;5068456;28;20082;-59
2022/11/05 08:41:50;;;;;;;;;;;;;;;;;;;;;
2022/11/05 08:47:14;;;;;;;;;;;;;;;;;;5078109;28;20067;-59
2022/11/05 08:50:02;;;;;;;6.35;5.30;;;;;;;;;;5094173;28;19915;-59
2022/11/05 08:53:00;;;;;;;5.22;4.07;;;;;;;;;;5097698;28;20362;-58
2022/11/05 08:55:55;;;;;;;3.47;2.75;;;;;;;;;;5086731;28;20454;-57
2022/11/05 08:59:05;;;;;;;3.70;2.78;;;;;;;;;;5088931;28;20034;-59
2022/11/05 09:01:54;;;;;;;6.18;2.80;;;;;;;;;;5098000;28;20035;-57
2022/11/05 09:04:41;;;;;;;5.00;3.03;;;;;;;;;;5083454;28;20040;-58
2022/11/05 09:07:21;;;;;;;3.38;1.95;;;;;;;;;;5098108;28;20028;-59
2022/11/05 09:12:57;;;;;;;3.17;2.53;;;;;;;;;;5073159;28;20043;-58
2022/11/05 09:15:26;;;;;;;3.67;2.40;;;;;;;;;;5073105;28;20024;-58
2022/11/05 09:21:16;;;;;;;3.92;2.30;;;;;;;;;;5097407;28;20047;-57
2022/11/05 09:24:11;;;;;;;5.05;3.20;;;;;;;;;;5094684;28;20024;-58
2022/11/05 09:26:58;;;;;;;3.92;2.83;;;;;;;;;;5058071;28;20032;-58
2022/11/05 09:29:30;;;;;;;4.90;3.40;;;;;;;;;;5096907;28;20107;-58
2022/11/05 09:41:24;;;;;;;5.38;3.38;;;;;;;;;;5080064;28;20036;-58
2022/11/05 09:47:09;;;;;;;8.55;4.13;;;;;;;;;;5038976;28;20029;-59
2022/11/05 09:49:55;;;;;;;4.65;3.25;;;;;;;;;;5066629;28;20557;-59
2022/11/05 09:55:45;;;;;;;7.40;5.03;;;;;;;;;;5001866;28;20041;-58
2022/11/05 09:58:27;;;;;;;7.35;5.10;;;;;;;;;;5014613;28;20029;-59
2022/11/05 10:01:19;;;;;;;6.85;4.68;;;;;;;;;;4998584;28;20566;-58
2022/11/05 10:04:12;;;;;;;4.95;3.25;;;;;;;;;;5015196;28;20026;-57
2022/11/05 10:06:58;;;;;;;6.10;4.38;;;;;;;;;;5067112;28;20032;-59
2022/11/05 10:09:45;;;;;;;8.02;5.00;;;;;;;;;;5096888;28;20046;-58
2022/11/05 10:13:10;;;;;;;7.13;4.97;;;;;;;;;;5096732;28;20035;-58
2022/11/05 10:16:01;;;;;;;11.60;5.45;;;;;;;;;;4994136;28;20025;-59
2022/11/05 10:21:35;;;;;;;6.03;4.70;;;;;;;;;;5086506;28;20083;-58
2022/11/05 10:27:30;;;;;;;;;;;;;;;;;;;;;
2022/11/05 10:30:20;;;;;;;7.72;6.18;;;;;;;;;;5094931;28;20366;-57
2022/11/05 10:36:07;;;;;;;6.97;5.65;;;;;;;;;;5095312;28;20104;-57
2022/11/05 10:38:56;;;;;;;7.75;5.47;;;;;;;;;;5095547;28;20097;-58
2022/11/05 10:41:52;;;;;;;9.00;6.32;;;;;;;;;;5070963;28;20036;-58
2022/11/05 10:44:47;;;;;;;;;;;;;;;;;;;;;
2022/11/05 10:50:53;;;;;;;8.52;5.75;;;;;;;;;;5065755;28;20075;-58
2022/11/05 10:53:58;;;;;;;8.25;6.25;;;;;;;;;;5092780;28;20039;-59
2022/11/05 10:57:06;;;;;;;7.93;5.78;;;;;;;;;;5076491;28;20485;-57
2022/11/05 10:59:41;;;;;;;9.73;7.18;;;;;;;;;;5096018;28;20031;-59
2022/11/05 11:02:29;;;;;;;14.55;6.25;;;;;;;;;;5095845;28;20028;-57
2022/11/05 11:05:31;;;;;;;9.15;5.82;;;;;;;;;;5094863;28;20024;-58
2022/11/05 11:11:35;;;;;;;8.88;6.13;;;;;;;;;;5094628;28;20486;-58
2022/11/05 11:14:34;;;;;;;8.10;5.95;;;;;;;;;;5094663;28;20028;-57
2022/11/05 11:17:23;;;;;;;7.10;5.63;;;;;;;;;;5095245;28;20483;-57
2022/11/05 11:20:29;;;;;;;6.95;4.80;;;;;;;;;;5075830;28;20028;-58
2022/11/05 11:29:38;;;;;;;12.52;6.07;;;;;;;;;;5081314;28;20117;-58
2022/11/05 11:32:26;;;;;;;8.10;5.20;;;;;;;;;;5077252;28;20377;-57
2022/11/05 11:35:25;;;;;;;9.32;5.43;;;;;;;;;;5093573;28;20048;-55
2022/11/05 11:37:59;;;;;;;8.07;4.72;;;;;;;;;;5075517;28;20465;-57
2022/11/05 11:43:51;;;;;;;7.75;5.78;;;;;;;;;;5094932;28;20055;-58
2022/11/05 11:46:38;;;;;;;7.10;4.18;;;;;;;;;;5023224;28;20044;-57
2022/11/05 11:49:33;;;;;;;7.53;4.97;;;;;;;;;;5070491;28;20130;-61
2022/11/05 11:52:10;;;;;;;6.20;4.68;;;;;;;;;;5075345;28;20070;-59
2022/11/05 11:55:09;;;;;;;;;;;;;;;;;;;;;
2022/11/05 11:57:48;;;;;;;9.30;5.57;;;;;;;;;;5027476;28;20101;-58
2022/11/05 12:00:18;;;;;;;6.75;5.22;;;;;;;;;;5075257;28;20036;-58
2022/11/05 12:02:48;;;;;;;;;;;;;;;;;;5071168;28;20040;-58
2022/11/05 12:08:26;;;;;;;5.15;3.42;;;;;;;;;;5075037;28;20031;-58
2022/11/05 12:11:37;;;;;;;9.65;5.28;;;;;;;;;;5074962;28;20378;-58
2022/11/05 12:17:09;;;;;;;5.18;4.13;;;;;;;;;;4918674;29;19907;-58
2022/11/05 12:19:56;;;;;;;7.03;4.65;;;;;;;;;;4956065;28;20175;-57
2022/11/05 12:22:54;;;;;;;7.10;4.47;;;;;;;;;;5018115;28;20043;-57
2022/11/05 12:25:51;;;;;;;;;;;;;;;;;;;;;
2022/11/05 12:28:20;;;;;;;7.75;4.70;;;;;;;;;;5073907;28;20382;-58
2022/11/05 12:31:01;;;;;;;11.90;5.57;;;;;;;;;;5055506;28;20439;-58
2022/11/05 12:33:27;;;;;;;;;;;;;;;;;;5074368;28;20035;-58
2022/11/05 12:39:44;;;;;;;7.20;4.93;;;;;;;;;;5028616;28;20027;-59
2022/11/05 12:42:35;;;;;;;5.05;4.22;;;;;;;;;;5073565;28;20025;-57
2022/11/05 12:45:29;;;;;;;6.30;5.70;;;;;;;;;;5055380;28;20033;-59
2022/11/05 12:48:21;;;;;;;7.68;5.10;;;;;;;;;;5073853;28;20020;-57
2022/11/05 12:51:23;;;;;;;7.50;4.63;;;;;;;;;;5055507;28;20046;-57
2022/11/05 12:57:03;;;;;;;6.72;4.30;;;;;;;;;;5051191;28;20400;-59
2022/11/05 12:59:41;;;;;;;7.55;4.63;;;;;;;;;;5089124;28;20047;-57
2022/11/05 13:02:32;;;;;;;8.82;4.55;;;;;;;;;;5093621;28;20035;-57
2022/11/05 13:05:17;;;;;;;6.75;5.18;;;;;;;;;;5075702;28;20032;-58
2022/11/05 13:08:13;;;;;;;7.35;5.05;;;;;;;;;;5094311;28;20454;-60
2022/11/05 13:10:51;;;;;;;6.22;4.78;;;;;;;;;;5048242;28;20496;-59
2022/11/05 13:13:26;;;;;;;5.30;4.15;;;;;;;;;;5094074;28;20024;-58
2022/11/05 13:16:23;;;;;;;;;;;;;;;;;;;;;
2022/11/05 13:19:20;;;;;;;;;;;;;;;;;;;;;
2022/11/05 13:27:55;;;;;;;7.32;4.95;;;;;;;;;;5097883;28;20036;-58
2022/11/05 13:31:12;;;;;;;7.57;4.03;;;;;;;;;;5078850;28;20496;-56
2022/11/05 13:33:49;;;;;;;5.13;4.15;;;;;;;;;;4994519;28;20046;-58
2022/11/05 13:39:46;;;;;;;5.57;4.47;;;;;;;;;;4995387;28;20187;-59
2022/11/05 13:42:34;;;;;;;5.82;3.72;;;;;;;;;;4967192;28;20107;-58
2022/11/05 13:45:40;;;;;;;;;;;;;;;;;;;;;
2022/11/05 13:51:51;;;;;;;5.80;4.55;;;;;;;;;;5081001;28;20051;-58
2022/11/05 13:54:48;;;;;;;5.65;3.67;;;;;;;;;;5057408;28;20085;-58
2022/11/05 13:57:36;;;;;;;5.68;3.70;;;;;;;;;;5077530;28;20111;-58
2022/11/05 14:00:18;;;;;;;5.53;3.88;;;;;;;;;;5056222;28;20036;-59
2022/11/05 14:03:06;;;;;;;4.47;3.83;;;;;;;;;;5076882;28;20362;-57
2022/11/05 14:06:07;;;;;;;9.23;4.75;;;;;;;;;;5057613;28;20086;-58
2022/11/05 14:09:10;;;;;;;6.10;3.80;;;;;;;;;;5058175;28;20421;-59
2022/11/05 14:14:59;;;;;;;5.22;3.83;;;;;;;;;;5077913;28;20044;-58
2022/11/05 14:17:54;;;;;;;4.90;3.78;;;;;;;;;;5058593;28;20470;-57
2022/11/05 14:20:48;;;;;;;6.25;4.20;;;;;;;;;;5057983;28;20040;-58
2022/11/05 14:23:44;;;;;;;4.22;3.30;;;;;;;;;;5079693;28;20471;-57
2022/11/05 14:29:51;;;;;;;9.15;3.97;;;;;;;;;;5061347;28;20028;-58
2022/11/05 14:32:49;;;;;;;4.82;3.33;;;;;;;;;;5075283;28;20359;-58
2022/11/05 14:35:28;;;;;;;;;;;;;;;;;;;;;
2022/11/05 14:38:02;;;;;;;7.35;3.05;;;;;;;;;;5075002;28;20377;-58
2022/11/05 14:41:08;;;;;;;7.10;3.85;;;;;;;;;;5055274;28;20471;-58
2022/11/05 14:43:59;;;;;;;6.28;3.85;;;;;;;;;;5057157;28;20062;-58
2022/11/05 14:49:48;;;;;;;6.18;3.35;;;;;;;;;;4976463;28;20484;-57
2022/11/05 14:52:32;;;;;;;10.68;4.22;;;;;;;;;;4994176;28;20038;-57
2022/11/05 14:55:26;;;;;;;5.28;3.72;;;;;;;;;;4994094;28;20030;-58
2022/11/05 15:01:46;;;;;;;4.10;3.30;;;;;;;;;;5095562;28;20381;-58
2022/11/05 15:07:34;;;;;;;7.72;4.30;;;;;;;;;;5095287;28;20031;-58
2022/11/05 15:10:43;;;;;;;5.43;3.97;;;;;;;;;;5077159;28;20400;-58
2022/11/05 15:16:45;;;;;;;5.63;4.90;;;;;;;;;;4954401;29;20027;-59
2022/11/05 15:19:41;;;;;;;5.32;3.53;;;;;;;;;;4951417;28;20121;-57
2022/11/05 15:22:33;;;;;;;5.88;4.20;;;;;;;;;;5021204;28;20029;-58
2022/11/05 15:25:14;;;;;;;5.28;3.75;;;;;;;;;;5094572;28;20039;-58
2022/11/05 15:28:00;;;;;;;5.20;3.97;;;;;;;;;;5079794;28;20058;-58
2022/11/05 15:30:47;;;;;;;7.32;3.28;;;;;;;;;;5095498;28;20036;-57
2022/11/05 15:33:22;;;;;;;7.13;2.95;;;;;;;;;;5095216;28;20523;-58
2022/11/05 15:36:00;;;;;;;6.68;4.15;;;;;;;;;;5054983;28;20470;-59
2022/11/05 15:38:45;;;;;;;;;;;;;;;;;;;;;
2022/11/05 15:41:43;;;;;;;7.70;4.13;;;;;;;;;;5095240;28;20446;-57
2022/11/05 15:44:28;;;;;;;4.82;3.40;;;;;;;;;;5083962;28;20477;-58
2022/11/05 15:47:13;;;;;;;4.97;3.70;;;;;;;;;;5076601;28;20070;-59
2022/11/05 15:50:15;;;;;;;7.75;4.75;;;;;;;;;;5076677;28;20111;-58
2022/11/05 15:53:09;;;;;;;6.97;3.80;;;;;;;;;;5022478;28;20097;-59
2022/11/05 15:55:59;;;;;;;6.07;4.03;;;;;;;;;;5046197;28;20158;-57
2022/11/05 16:02:04;;;;;;;9.00;3.97;;;;;;;;;;5060332;28;20033;-58
2022/11/05 16:04:39;;;;;;;4.43;3.13;;;;;;;;;;4992482;28;20026;-58
2022/11/05 16:07:31;;;;;;;4.95;3.90;;;;;;;;;;4968971;28;20030;-59
2022/11/05 16:10:15;;;;;;;5.35;3.08;;;;;;;;;;5054073;28;20028;-57
2022/11/05 16:15:34;;;;;;;3.60;3.03;;;;;;;;;;5066131;28;20036;-59
2022/11/05 16:18:29;;;;;;;7.13;3.17;;;;;;;;;;5074263;28;20025;-61
2022/11/05 16:21:04;;;;;;;4.25;3.78;;;;;;;;;;5056619;28;20323;-59
2022/11/05 16:23:59;;;;;;;5.95;3.42;;;;;;;;;;5074414;28;20422;-59
2022/11/05 16:26:45;;;;;;;4.43;2.90;;;;;;;;;;5074078;28;20489;-59
2022/11/05 16:29:37;;;;;;;5.15;4.00;;;;;;;;;;5075209;28;20340;-59
2022/11/05 16:38:24;;;;;;;5.72;3.38;;;;;;;;;;5073991;28;20035;-59
2022/11/05 16:41:09;;;;;;;6.93;3.75;;;;;;;;;;4955857;28;20039;-59
2022/11/05 16:43:58;;;;;;;7.03;3.65;;;;;;;;;;5002296;28;20398;-58
2022/11/05 16:46:48;;;;;;;5.07;4.00;;;;;;;;;;5073388;28;20036;-58
2022/11/05 16:49:43;;;;;;;5.13;3.20;;;;;;;;;;5045393;28;20043;-57
2022/11/05 17:01:49;;;;;;;7.00;3.92;;;;;;;;;;4956634;29;20035;-59
2022/11/05 17:07:08;;;;;;;3.53;2.65;;;;;;;;;;4976526;28;20094;-59
2022/11/05 17:09:44;;;;;;;6.32;3.85;;;;;;;;;;4976878;28;20031;-58
2022/11/05 17:12:11;;;;;;;6.53;2.92;;;;;;;;;;5005319;28;20036;-59
2022/11/05 17:18:15;;;;;;;7.63;3.15;;;;;;;;;;5014773;28;20053;-58
2022/11/05 17:20:46;;;;;;;4.50;3.80;;;;;;;;;;5014480;28;20040;-59
2022/11/05 17:23:25;;;;;;;;;;;;;;;;;;;;;
2022/11/05 17:26:28;;;;;;;;;;;;;;;;;;;;;
2022/11/05 17:32:08;;;;;;;;;;;;;;;;;;;;;
2022/11/05 17:34:47;;;;;;;7.70;4.70;;;;;;;;;;5036337;28;20120;-58
2022/11/05 17:40:32;;;;;;;;;;;;;;;;;;;;;
2022/11/05 17:43:07;;;;;;;5.88;4.03;;;;;;;;;;5077729;28;20037;-59
2022/11/05 17:46:03;;;;;;;6.13;4.93;;;;;;;;;;5034755;28;20073;-59
2022/11/05 17:48:32;;;;;;;12.57;5.00;;;;;;;;;;5017869;28;20037;-60
2022/11/05 17:51:10;;;;;;;6.35;4.57;;;;;;;;;;5027746;28;20055;-59
2022/11/05 17:53:55;;;;;;;5.45;4.38;;;;;;;;;;5051899;28;20041;-60
2022/11/05 17:56:48;;;;;;;5.80;4.63;;;;;;;;;;5054664;28;20124;-57
2022/11/05 17:59:37;;;;;;;;;;;;;;;;;;;;;
2022/11/05 18:02:34;;;;;;;;;;;;;;;;;;;;;
2022/11/05 18:05:29;;;;;;;;;;;;;;;;;;;;;
2022/11/05 18:08:16;;;;;;;6.03;3.75;;;;;;;;;;5040281;28;20025;-58
2022/11/05 18:10:55;;;;;;;7.22;3.97;;;;;;;;;;5053496;28;20041;-57
2022/11/05 18:13:44;;;;;;;4.50;3.78;;;;;;;;;;5054200;28;20120;-57
2022/11/05 18:16:29;;;;;;;5.70;3.85;;;;;;;;;;5068234;28;20047;-57
2022/11/05 18:19:37;;;;;;;;;;;;;;;;;;;;;
2022/11/05 18:25:35;;;;;;;5.47;3.60;;;;;;;;;;5076526;28;20346;-57
2022/11/05 18:31:03;;;;;;;4.90;4.38;;;;;;;;;;5090400;28;20125;-58
2022/11/05 18:34:14;;;;;;;;;;;;;;;;;;;;;
2022/11/05 18:36:55;;;;;;;7.50;5.32;;;;;;;;;;5096443;28;20107;-58
2022/11/05 18:39:47;;;;;;;7.20;4.85;;;;;;;;;;5096477;28;20059;-57
2022/11/05 18:42:14;;;;;;;6.90;5.53;;;;;;;;;;5053769;28;20029;-58
2022/11/05 18:45:02;;;;;;;7.57;5.40;;;;;;;;;;5058275;28;20033;-57
2022/11/05 18:48:11;;;;;;;6.28;4.88;;;;;;;;;;5053511;28;20033;-59
2022/11/05 18:50:44;;;;;;;6.63;4.40;;;;;;;;;;4977038;28;20625;-59
2022/11/05 18:53:15;;;;;;;8.35;6.13;;;;;;;;;;5028150;28;20116;-58
2022/11/05 19:02:44;;;;;;;9.57;5.18;;;;;;;;;;5016127;28;20034;-59
2022/11/05 19:08:14;;;;;;;8.18;5.43;;;;;;;;;;5050937;28;20547;-59
2022/11/05 19:10:55;;;;;;;6.07;5.18;;;;;;;;;;5075218;28;20036;-58
2022/11/05 19:13:44;;;;;;;7.60;5.38;;;;;;;;;;5040907;28;20474;-59
2022/11/05 19:16:32;;;;;;;9.93;5.82;;;;;;;;;;5073457;28;20082;-59
2022/11/05 19:19:45;;;;;;;17.55;6.90;;;;;;;;;;5056629;28;20024;-60
2022/11/05 19:22:44;;;;;;;;;;;;;;;;;;;;;
2022/11/05 19:25:30;;;;;;;9.30;7.07;;;;;;;;;;5069431;28;20462;-59
2022/11/05 19:28:33;;;;;;;;;;;;;;;;;;;;;
2022/11/05 19:31:36;;;;;;;10.52;8.85;;;;;;;;;;5074713;28;20397;-59
2022/11/05 19:36:54;;;;;;;11.27;9.40;;;;;;;;;;5074787;28;20032;-59
2022/11/05 19:39:26;;;;;;;12.20;9.13;;;;;;;;;;5074691;28;20409;-59
2022/11/05 19:45:13;;;;;;;14.82;9.52;;;;;;;;;;5074433;28;20548;-59
2022/11/05 19:48:03;;;;;;;15.80;9.15;;;;;;;;;;5074044;28;20045;-59
2022/11/05 19:51:06;;;;;;;10.30;7.47;;;;;;;;;;5074581;28;20389;-59
2022/11/05 19:57:18;;;;;;;9.27;8.18;;;;;;;;;;5036100;28;20485;-59
2022/11/05 20:03:20;;;;;;;11.20;7.57;;;;;;;;;;5052461;28;20062;-59
2022/11/05 20:06:00;;;;;;;10.80;7.40;;;;;;;;;;5074406;28;20074;-60
2022/11/05 20:09:17;;;;;;;;;;;;;;;;;;;;;
2022/11/05 20:12:02;;;;;;;10.55;8.23;;;;;;;;;;5069776;28;20037;-60
2022/11/05 20:14:49;;;;;;;12.40;9.07;;;;;;;;;;5037492;28;20135;-59
2022/11/05 20:17:38;;;;;;;;;;;;;;;;;;;;;
2022/11/05 20:20:10;;;;;;;9.82;7.82;;;;;;;;;;5074876;28;20104;-60
2022/11/05 20:22:52;;;;;;;10.52;7.47;;;;;;;;;;5074312;28;20355;-59
2022/11/05 20:25:31;;;;;;;8.85;6.38;;;;;;;;;;5055544;28;20036;-59
2022/11/05 20:28:22;;;;;;;12.68;8.68;;;;;;;;;;5078217;28;20047;-59
2022/11/05 20:30:56;;;;;;;14.50;8.77;;;;;;;;;;5078476;28;20134;-59
2022/11/05 20:33:53;;;;;;;7.53;6.30;;;;;;;;;;5078217;28;20048;-59
2022/11/05 20:39:43;;;;;;;12.05;8.20;;;;;;;;;;5016647;28;20543;-59
2022/11/05 20:42:26;;;;;;;12.77;9.70;;;;;;;;;;5000705;28;20117;-59
2022/11/05 20:45:14;;;;;;;;;;;;;;;;;;;;;
2022/11/05 20:48:15;;;;;;;11.68;8.35;;;;;;;;;;5013569;28;20098;-59
2022/11/05 20:54:05;;;;;;;11.63;8.18;;;;;;;;;;5039372;28;20415;-60
2022/11/05 20:57:00;;;;;;;12.40;8.25;;;;;;;;;;5032524;28;20468;-59
2022/11/05 21:00:01;;;;;;;9.20;7.15;;;;;;;;;;5034944;28;20494;-58
2022/11/05 21:02:46;;;;;;;;;;;;;;;;;;;;;
2022/11/05 21:05:32;;;;;;;11.00;8.93;;;;;;;;;;5098130;28;20028;-59
2022/11/05 21:14:13;;;;;;;14.23;7.22;;;;;;;;;;5088566;28;20089;-59
2022/11/05 21:16:53;;;;;;;9.30;7.22;;;;;;;;;;5097477;28;20017;-59
2022/11/05 21:19:50;;;;;;;;;;;;;;;;;;;;;
2022/11/05 21:25:20;;;;;;;10.48;7.30;;;;;;;;;;5093647;28;20035;-59
2022/11/05 21:30:46;;;;;;;;;;;;;;;;;;;;;
2022/11/05 21:33:18;;;;;;;;;;;;;;;;;;5092759;28;20062;-59
2022/11/05 21:42:44;;;;;;;8.95;7.30;;;;;;;;;;5097046;28;20485;-60
2022/11/05 21:45:38;;;;;;;9.77;8.40;;;;;;;;;;5010201;28;20036;-60
2022/11/05 21:48:33;;;;;;;9.85;7.53;;;;;;;;;;5079591;28;20032;-59
2022/11/05 21:59:50;;;;;;;13.57;9.75;;;;;;;;;;5096778;28;20082;-60
2022/11/05 22:02:27;;;;;;;14.13;8.07;;;;;;;;;;5109324;28;20059;-58
2022/11/05 22:05:05;;;;;;;11.45;8.10;;;;;;;;;;5087369;28;20123;-60
2022/11/05 22:07:56;;;;;;;10.43;8.07;;;;;;;;;;5111854;28;20035;-59
2022/11/05 22:10:44;;;;;;;;;;;;;;;;;;;;;
2022/11/05 22:13:21;;;;;;;8.63;7.57;;;;;;;;;;5094979;28;20059;-60
2022/11/05 22:19:27;;;;;;;10.55;8.15;;;;;;;;;;5097427;28;20098;-60
2022/11/05 22:22:16;;;;;;;9.25;8.27;;;;;;;;;;5092507;28;20099;-60
2022/11/05 22:24:51;;;;;;;9.55;7.50;;;;;;;;;;5111452;28;20028;-60
2022/11/05 22:27:37;;;;;;;10.88;8.85;;;;;;;;;;5111032;28;20028;-57
2022/11/05 22:30:30;;;;;;;13.00;9.38;;;;;;;;;;5111111;28;20346;-60
2022/11/05 22:33:11;;;;;;;14.30;9.55;;;;;;;;;;5081862;28;20052;-60
2022/11/05 22:36:05;;;;;;;12.68;9.00;;;;;;;;;;5110869;28;20031;-59
2022/11/05 22:39:10;;;;;;;;;;;;;;;;;;;;;
2022/11/05 22:41:37;;;;;;;9.98;8.38;;;;;;;;;;5110391;28;20067;-59
2022/11/05 22:44:41;;;;;;;10.13;8.43;;;;;;;;;;5110570;28;20024;-58
2022/11/05 22:53:02;;;;;;;10.38;8.25;;;;;;;;;;5078288;28;20059;-60
2022/11/05 22:58:48;;;;;;;12.88;7.85;;;;;;;;;;5110516;28;20082;-59
2022/11/05 23:01:25;;;;;;;12.02;8.07;;;;;;;;;;5110436;28;20032;-59
2022/11/05 23:12:43;;;;;;;;;;;;;;;;;;;;;
2022/11/05 23:24:25;;;;;;;11.05;7.85;;;;;;;;;;5109759;28;20515;-60
2022/11/05 23:27:25;;;;;;;10.52;7.63;;;;;;;;;;5109840;28;20027;-60